»·PEaware :: N24AS KPDX-KONP

N24AS :: KPDX-KONP

FLIGHT INFORMATION

Flight Status: Arrived
Operator: Privately registered:
United States
More flights under this callsign
Pilot: Andrew S. (20703)
Aircraft: SOCATA TBM-900
(TBM9)
More flights by this aircraft type
Origin: KPDX Portland Intl
United States
Destination: KONP Newport Mun
United States
More flights between these airports :: More routes between these airports
Route: +PTLD1 UBG CUTEL
File this flight plan on PilotEdge
Remarks:
Altitude:
(Current/Filed)
15,000ft
Speed:
(Current/Filed)
300kts
Departed: 11-Jul-19 07:04 PM
Arrived: 11-Jul-19 07:37 PM
Distance/Time
Traveled:
87nm/0:33
Distance/Time
To Go:
Arrived

Flight Plot

Page will automatically refresh every two minutes.

Flight plan parsing failed; only flown route is shown


Map Options




Map Legend


Flown Route
Filed Route
Departure Airport
Arrival Airport
Navaid (VOR, NDB)
Fix

Horizontal Profiles

Position Reports

Time Latitude Longitude Heading Altitude Ground
Speed
11-Jul-19 18:44 45.587435 -122.583524 208 26ft 0kts
11-Jul-19 18:45 45.587435 -122.583524 208 26ft 0kts
11-Jul-19 18:46 45.587435 -122.583524 208 26ft 0kts
11-Jul-19 18:47 45.587435 -122.583524 208 26ft 0kts
11-Jul-19 18:48 45.587435 -122.583524 208 26ft 0kts
11-Jul-19 18:49 45.587435 -122.583524 208 26ft 0kts
11-Jul-19 18:50 45.587435 -122.583524 208 26ft 0kts
11-Jul-19 18:51 45.587435 -122.583524 208 26ft 0kts
11-Jul-19 18:52 45.587435 -122.583524 208 26ft 0kts
11-Jul-19 18:53 45.587435 -122.583524 208 26ft 0kts
11-Jul-19 18:54 45.587435 -122.583524 208 26ft 0kts
11-Jul-19 18:55 45.587435 -122.583524 208 26ft 0kts
11-Jul-19 18:56 45.587435 -122.583524 208 26ft 0kts
11-Jul-19 18:57 45.587815 -122.583079 64 26ft 6kts
11-Jul-19 18:58 45.587122 -122.579000 117 26ft 18kts
11-Jul-19 18:59 45.584008 -122.571114 119 26ft 24kts
11-Jul-19 19:00 45.582745 -122.567355 57 26ft 0kts
11-Jul-19 19:01 45.582745 -122.567355 57 26ft 0kts
11-Jul-19 19:02 45.582747 -122.567350 56 26ft 0kts
11-Jul-19 19:03 45.584991 -122.570403 299 26ft 85kts
11-Jul-19 19:04 45.600073 -122.609629 297 2035ft 118kts
11-Jul-19 19:05 45.620055 -122.661680 297 3041ft 197kts
11-Jul-19 19:06 45.644423 -122.726354 297 3000ft 180kts
11-Jul-19 19:07 45.667919 -122.790031 297 3187ft 171kts
11-Jul-19 19:08 45.658782 -122.835049 228 5604ft 142kts
11-Jul-19 19:09 45.633055 -122.873462 232 8441ft 135kts
11-Jul-19 19:10 45.608524 -122.912573 231 10963ft 134kts
11-Jul-19 19:11 45.584008 -122.952012 231 13236ft 135kts
11-Jul-19 19:12 45.558774 -122.992721 231 15024ft 154kts
11-Jul-19 19:13 45.523223 -123.050070 230 15017ft 217kts
11-Jul-19 19:14 45.482343 -123.115717 230 15760ft 204kts
11-Jul-19 19:15 45.443202 -123.178533 230 16014ft 223kts
11-Jul-19 19:16 45.400821 -123.246346 230 16004ft 232kts
11-Jul-19 19:17 45.357529 -123.315455 230 15999ft 233kts
11-Jul-19 19:18 45.314126 -123.384572 230 16002ft 233kts
11-Jul-19 19:19 45.270744 -123.453487 230 16023ft 233kts
11-Jul-19 19:20 45.227373 -123.522215 230 16043ft 233kts
11-Jul-19 19:21 45.183900 -123.590933 230 16064ft 233kts
11-Jul-19 19:22 45.143573 -123.654545 229 15568ft 249kts
11-Jul-19 19:23 45.095997 -123.729385 228 14592ft 260kts
11-Jul-19 19:24 45.047037 -123.806187 228 13591ft 263kts
11-Jul-19 19:25 44.999711 -123.880217 228 12024ft 235kts
11-Jul-19 19:26 44.957504 -123.946045 229 10182ft 220kts
11-Jul-19 19:27 44.916985 -124.009127 230 8363ft 207kts
11-Jul-19 19:28 44.884601 -124.069813 232 6515ft 188kts
11-Jul-19 19:29 44.835815 -124.076078 182 5567ft 153kts
11-Jul-19 19:30 44.793508 -124.073012 180 4531ft 151kts
11-Jul-19 19:31 44.751831 -124.070257 180 3523ft 149kts
11-Jul-19 19:32 44.710730 -124.067548 179 2595ft 143kts
11-Jul-19 19:33 44.672978 -124.065063 179 1865ft 127kts
11-Jul-19 19:34 44.639142 -124.062843 178 1278ft 130kts
11-Jul-19 19:35 44.607110 -124.060696 178 605ft 100kts
11-Jul-19 19:36 44.582470 -124.059099 178 163ft 31kts
11-Jul-19 19:37 44.577368 -124.061324 231 163ft 0kts
11-Jul-19 19:38 44.577368 -124.061324 231 163ft 0kts
11-Jul-19 19:39 44.577368 -124.061324 231 163ft 0kts
11-Jul-19 19:40 44.577368 -124.061324 231 163ft 0kts
11-Jul-19 19:41 44.577368 -124.061324 231 163ft 0kts
11-Jul-19 19:42 44.577368 -124.061324 231 163ft 0kts
11-Jul-19 19:43 44.577368 -124.061324 231 163ft 0kts

Navigation Log

Ident Type
Flight plan parsing failed, navigation log unavailable